»·PEaware :: N800DW KMTH-MYNN

N800DW :: KMTH-MYNN

FLIGHT INFORMATION

Flight Status: Arrived
Operator: Privately registered:
United States
More flights under this callsign
Pilot: Scott L. (17677)
Aircraft: BEECH AIRCRAFT BARON
(BE58)
More flights by this aircraft type
Origin: KMTH Florida Keys Marathon
United States
Destination: MYNN Nassau Intl
Bahamas
More flights between these airports :: More routes between these airports
Route: MTH B646 ZQA
File this flight plan on PilotEdge
Remarks:
Altitude:
(Current/Filed)
9,000ft
Speed:
(Current/Filed)
150kts
Departed: 01-Apr-20 02:08 PM
Arrived: 01-Apr-20 03:19 PM
Distance/Time
Traveled:
196nm/1:11
Distance/Time
To Go:
Arrived

Flight Plot

Page will automatically refresh every two minutes.


Map Options




Map Legend


Flown Route
Filed Route
Departure Airport
Arrival Airport
Navaid (VOR, NDB)
Fix

Horizontal Profiles

Position Reports

Time Latitude Longitude Heading Altitude Ground
Speed
01-Apr-20 14:06 24.723831 -81.055965 251 4ft 16kts
01-Apr-20 14:07 24.725817 -81.052571 58 49ft 94kts
01-Apr-20 14:08 24.731323 -81.014264 82 1201ft 145kts
01-Apr-20 14:09 24.732452 -80.967946 83 2143ft 177kts
01-Apr-20 14:10 24.735757 -80.907522 83 1841ft 205kts
01-Apr-20 14:11 24.741883 -80.850001 79 2623ft 181kts
01-Apr-20 14:12 24.748585 -80.795502 78 3396ft 176kts
01-Apr-20 14:13 24.755066 -80.742864 78 4290ft 171kts
01-Apr-20 14:14 24.761406 -80.691091 78 5162ft 170kts
01-Apr-20 14:15 24.767690 -80.639838 78 6006ft 168kts
01-Apr-20 14:16 24.773947 -80.588463 78 6785ft 169kts
01-Apr-20 14:17 24.780199 -80.537001 78 7561ft 168kts
01-Apr-20 14:18 24.786340 -80.486333 78 8264ft 171kts
01-Apr-20 14:19 24.792612 -80.434373 78 9061ft 171kts
01-Apr-20 14:20 24.799447 -80.377730 79 9099ft 193kts
01-Apr-20 14:21 24.806686 -80.317241 79 9011ft 201kts
01-Apr-20 14:22 24.813998 -80.256011 80 8977ft 201kts
01-Apr-20 14:23 24.821306 -80.194755 80 8961ft 201kts
01-Apr-20 14:24 24.828567 -80.133578 80 8957ft 200kts
01-Apr-20 14:25 24.835770 -80.072540 80 8959ft 200kts
01-Apr-20 14:26 24.842972 -80.011633 80 8951ft 201kts
01-Apr-20 14:27 24.850114 -79.950787 80 8949ft 201kts
01-Apr-20 14:28 24.857269 -79.889589 80 8965ft 200kts
01-Apr-20 14:29 24.864406 -79.828410 80 8956ft 201kts
01-Apr-20 14:30 24.871518 -79.767289 80 8965ft 200kts
01-Apr-20 14:31 24.878604 -79.706015 80 8963ft 200kts
01-Apr-20 14:32 24.885678 -79.644764 80 8965ft 200kts
01-Apr-20 14:33 24.892719 -79.583575 80 8959ft 201kts
01-Apr-20 14:34 24.899708 -79.522497 80 8958ft 201kts
01-Apr-20 14:35 24.906708 -79.461159 80 8969ft 200kts
01-Apr-20 14:36 24.913642 -79.400110 80 8956ft 202kts
01-Apr-20 14:37 24.920628 -79.338493 80 8966ft 201kts
01-Apr-20 14:38 24.927598 -79.276760 81 8953ft 201kts
01-Apr-20 14:39 24.934480 -79.215559 81 8958ft 200kts
01-Apr-20 14:40 24.939209 -79.153782 84 8963ft 200kts
01-Apr-20 14:41 24.942676 -79.092193 83 8972ft 200kts
01-Apr-20 14:42 24.946111 -79.030612 83 8983ft 200kts
01-Apr-20 14:43 24.949498 -78.969241 82 8991ft 200kts
01-Apr-20 14:44 24.952871 -78.908016 82 8995ft 199kts
01-Apr-20 14:45 24.956194 -78.847030 82 8996ft 199kts
01-Apr-20 14:46 24.959518 -78.785472 82 8995ft 200kts
01-Apr-20 14:47 24.962808 -78.724064 82 8996ft 200kts
01-Apr-20 14:48 24.966076 -78.662630 82 8997ft 200kts
01-Apr-20 14:49 24.969315 -78.601229 82 8997ft 200kts
01-Apr-20 14:50 24.972536 -78.539703 82 8997ft 201kts
01-Apr-20 14:51 24.975748 -78.477867 82 8997ft 201kts
01-Apr-20 14:52 24.978944 -78.415818 82 8998ft 201kts
01-Apr-20 14:53 24.986701 -78.355794 45 8948ft 191kts
01-Apr-20 14:54 25.011749 -78.310100 81 9031ft 199kts
01-Apr-20 14:55 25.013158 -78.247831 85 8993ft 203kts
01-Apr-20 14:56 25.014270 -78.185618 85 8993ft 203kts
01-Apr-20 14:57 25.015363 -78.123154 85 8994ft 203kts
01-Apr-20 14:58 25.016423 -78.060880 85 8982ft 201kts
01-Apr-20 14:59 25.017406 -78.000765 84 7994ft 188kts
01-Apr-20 15:00 25.018339 -77.944345 84 7085ft 180kts
01-Apr-20 15:01 25.019210 -77.889475 86 6187ft 177kts
01-Apr-20 15:02 25.002906 -77.837166 108 5272ft 178kts
01-Apr-20 15:03 24.985615 -77.786600 107 4425ft 176kts
01-Apr-20 15:04 24.968235 -77.735802 107 3591ft 173kts
01-Apr-20 15:06 24.951487 -77.686939 107 2973ft 160kts
01-Apr-20 15:07 24.937096 -77.644965 106 2969ft 135kts
01-Apr-20 15:08 24.922903 -77.603395 107 3127ft 173kts
01-Apr-20 15:09 24.903962 -77.548529 108 3099ft 199kts
01-Apr-20 15:10 24.883825 -77.490043 108 3020ft 202kts
01-Apr-20 15:11 24.863642 -77.431489 108 3015ft 202kts
01-Apr-20 15:12 24.852733 -77.372464 60 3044ft 189kts
01-Apr-20 15:13 24.887816 -77.329276 38 2952ft 191kts
01-Apr-20 15:14 24.932431 -77.343629 316 2402ft 181kts
01-Apr-20 15:15 24.967071 -77.381597 315 1562ft 165kts
01-Apr-20 15:16 24.996125 -77.413830 314 775ft 118kts
01-Apr-20 15:17 25.015790 -77.436077 317 674ft 106kts
01-Apr-20 15:18 25.033830 -77.455707 314 21ft 68kts
01-Apr-20 15:19 25.041041 -77.461099 308 20ft 30kts
01-Apr-20 15:20 25.043689 -77.461112 331 20ft 0kts
01-Apr-20 15:21 25.043689 -77.461112 331 20ft 0kts
01-Apr-20 15:22 25.043689 -77.461112 331 20ft 0kts
01-Apr-20 15:23 25.043689 -77.461112 331 20ft 0kts
01-Apr-20 15:23 25.043689 -77.461112 331 20ft 0kts
01-Apr-20 15:25 25.043689 -77.461112 331 20ft 0kts
01-Apr-20 15:26 25.043689 -77.461112 331 20ft 0kts
01-Apr-20 15:26 25.043689 -77.461112 331 20ft 0kts
01-Apr-20 15:27 25.043689 -77.461112 331 20ft 0kts
01-Apr-20 15:29 25.043689 -77.461112 331 20ft 0kts
01-Apr-20 15:29 25.043689 -77.461112 331 20ft 0kts
01-Apr-20 15:30 25.043689 -77.461112 331 20ft 0kts
01-Apr-20 15:32 25.043689 -77.461112 331 20ft 0kts
01-Apr-20 15:32 25.043689 -77.461112 331 20ft 0kts

Navigation Log

Ident Type
Flight plan parsing failed, navigation log unavailable